Time;durP1;ratioP1;P1;durP2;ratioP2;P2;SDS_P1;SDS_P2;PMS_P1;PMS_P2;Temp;Humidity;BMP_temperature;BMP_pressure;BME280_temperature;BME280_humidity;BME280_pressure;Samples;Min_cycle;Max_cycle;Signal;HPM_P1;HPM_P2
2020/12/07 00:01:47;;;;;;;15.60;7.95;;;;;;;-6.50;67.70;101124.58;1680013;85;21170;-73
2020/12/07 00:04:14;;;;;;;15.95;7.17;;;;;;;-6.53;67.85;101128.39;1746748;82;21155;-73
2020/12/07 00:06:42;;;;;;;17.45;8.20;;;;;;;-6.62;67.94;101157.79;1680121;85;21562;-71
2020/12/07 00:09:09;;;;;;;15.38;8.33;;;;;;;-6.62;67.97;101143.63;1746599;82;21585;-72
2020/12/07 00:11:41;;;;;;;17.67;6.87;;;;;;;-6.66;67.87;101137.94;1746493;82;21163;-72
2020/12/07 00:14:08;;;;;;;19.90;8.15;;;;;;;-6.61;67.81;101137.63;1746562;82;21330;-72
2020/12/07 00:16:35;;;;;;;15.85;7.28;;;;;;;-6.69;67.92;101146.89;1680043;85;21165;-71
2020/12/07 00:19:03;;;;;;;13.72;6.83;;;;;;;-6.72;67.94;101135.26;1746713;82;21301;-73
2020/12/07 00:21:33;;;;;;;17.40;7.42;;;;;;;-6.77;67.96;101145.00;1746512;82;21196;-72
2020/12/07 00:24:01;;;;;;;16.57;7.95;;;;;;;-6.78;67.97;101143.29;1746484;82;21193;-71
2020/12/07 00:26:29;;;;;;;15.38;8.00;;;;;;;-6.86;68.15;101139.66;1746678;82;21187;-72
2020/12/07 00:28:58;;;;;;;19.35;8.23;;;;;;;-6.85;68.02;101147.83;1746499;82;21210;-72
2020/12/07 00:31:26;;;;;;;15.30;7.37;;;;;;;-6.85;67.98;101143.08;1746516;82;21151;-72
2020/12/07 00:33:58;;;;;;;16.57;7.80;;;;;;;-6.86;67.95;101143.52;1680086;85;21319;-72
2020/12/07 00:36:23;;;;;;;16.37;7.53;;;;;;;-6.86;67.90;101151.23;1746437;82;21180;-72
2020/12/07 00:38:51;;;;;;;15.25;8.20;;;;;;;-6.89;68.00;101151.56;1746285;82;21187;-72
2020/12/07 00:41:21;;;;;;;16.32;8.43;;;;;;;-6.88;68.02;101144.31;1746603;82;21321;-72
2020/12/07 00:43:48;;;;;;;15.98;7.55;;;;;;;-6.92;68.00;101142.97;1746700;82;21175;-72
2020/12/07 00:46:16;;;;;;;18.00;8.45;;;;;;;-6.93;67.96;101135.19;1746385;82;21159;-72
2020/12/07 00:48:45;;;;;;;14.23;6.95;;;;;;;-6.96;68.05;101137.70;1719793;82;21183;-71
2020/12/07 00:51:19;;;;;;;14.47;7.80;;;;;;;-6.98;68.00;101149.64;1680017;85;21346;-72
2020/12/07 00:53:47;;;;;;;19.45;8.30;;;;;;;-7.03;68.20;101137.09;1746424;82;21183;-72
2020/12/07 00:56:15;;;;;;;18.35;8.15;;;;;;;-7.07;68.05;101136.17;1677088;85;21233;-71
2020/12/07 00:58:44;;;;;;;18.87;7.47;;;;;;;-7.06;68.04;101139.17;1741290;82;21176;-72
2020/12/07 01:01:13;;;;;;;16.02;7.87;;;;;;;-7.09;68.11;101132.69;1741137;82;21755;-71
2020/12/07 01:03:41;;;;;;;17.02;7.87;;;;;;;-7.11;67.98;101135.22;1741324;82;21294;-71
2020/12/07 01:06:09;;;;;;;17.92;8.33;;;;;;;-7.12;68.07;101132.63;1741336;82;21165;-72
2020/12/07 01:08:38;;;;;;;18.07;9.20;;;;;;;-7.15;68.04;101129.53;1674923;86;21217;-72
2020/12/07 01:11:06;;;;;;;16.90;8.13;;;;;;;-7.15;67.99;101125.67;1741152;82;21156;-71
2020/12/07 01:13:34;;;;;;;15.93;7.10;;;;;;;-7.15;68.00;101133.81;1741132;82;21321;-72
2020/12/07 01:16:03;;;;;;;18.62;8.50;;;;;;;-7.19;67.92;101112.30;1741263;82;21599;-72
2020/12/07 01:18:31;;;;;;;16.45;7.55;;;;;;;-7.23;67.95;101129.77;1674894;86;21364;-72
2020/12/07 01:20:59;;;;;;;16.27;7.22;;;;;;;-7.22;67.94;101119.95;1741118;82;21703;-72
2020/12/07 01:23:27;;;;;;;19.70;8.18;;;;;;;-7.20;67.88;101117.41;1674828;86;21354;-72
2020/12/07 01:25:56;;;;;;;15.88;8.68;;;;;;;-7.28;67.93;101123.65;1741088;82;21187;-72
2020/12/07 01:28:24;;;;;;;17.65;8.35;;;;;;;-7.31;67.84;101110.73;1686496;84;21211;-72
2020/12/07 01:30:52;;;;;;;20.32;8.73;;;;;;;-7.27;67.79;101108.69;1706189;84;21164;-72
2020/12/07 01:33:24;;;;;;;17.07;7.50;;;;;;;-7.34;67.83;101112.81;1776366;81;21146;-73
2020/12/07 01:35:56;;;;;;;17.20;9.03;;;;;;;-7.29;67.62;101115.08;1776680;81;21152;-72
2020/12/07 01:38:23;;;;;;;20.40;9.93;;;;;;;-7.36;67.70;101122.61;1776331;80;21551;-73
2020/12/07 01:40:50;;;;;;;19.40;8.55;;;;;;;-7.37;67.65;101123.43;1707737;84;21163;-71
2020/12/07 01:43:18;;;;;;;16.55;7.60;;;;;;;-7.36;67.65;101126.45;1776450;81;21194;-72
2020/12/07 01:45:47;;;;;;;20.80;9.63;;;;;;;-7.38;67.61;101129.39;1776340;81;21321;-72
2020/12/07 01:48:16;;;;;;;17.37;7.45;;;;;;;-7.42;67.57;101120.34;1776710;81;21579;-71
2020/12/07 01:50:43;;;;;;;19.20;9.10;;;;;;;-7.41;67.66;101123.33;1776419;80;21329;-72
2020/12/07 01:53:11;;;;;;;17.45;8.08;;;;;;;-7.46;67.66;101123.63;1776342;80;21143;-71
2020/12/07 01:55:41;;;;;;;18.87;8.85;;;;;;;-7.44;67.58;101124.55;1742934;80;21348;-72
2020/12/07 01:58:08;;;;;;;18.77;8.70;;;;;;;-7.50;67.60;101114.55;1766261;81;21143;-71
2020/12/07 02:00:36;;;;;;;18.30;9.40;;;;;;;-7.49;67.62;101103.02;1736295;83;21153;-73
2020/12/07 02:03:06;;;;;;;16.80;8.00;;;;;;;-7.49;67.55;101103.02;1735694;80;21154;-72
2020/12/07 02:05:39;;;;;;;17.17;8.10;;;;;;;-7.52;67.51;101102.91;1755800;80;21155;-71
2020/12/07 02:08:14;;;;;;;19.55;8.25;;;;;;;-7.54;67.49;101105.88;1776672;81;21167;-71
2020/12/07 02:10:44;;;;;;;18.50;8.35;;;;;;;-7.55;67.56;101098.14;1775709;81;21183;-72
2020/12/07 02:13:14;;;;;;;14.40;7.37;;;;;;;-7.60;67.52;101104.44;1759506;80;21194;-71
2020/12/07 02:15:44;;;;;;;16.37;7.75;;;;;;;-7.59;67.46;101121.17;1736131;83;21327;-71
2020/12/07 02:18:12;;;;;;;16.48;7.83;;;;;;;-7.59;67.36;101129.30;1736196;83;21303;-71
2020/12/07 02:20:47;;;;;;;16.80;8.50;;;;;;;-7.58;67.29;101127.20;1735963;83;21142;-71
2020/12/07 02:23:16;;;;;;;15.32;7.85;;;;;;;-7.60;67.23;101124.98;1735466;83;21273;-72
2020/12/07 02:25:49;;;;;;;15.50;7.37;;;;;;;-7.60;67.17;101130.12;1735294;83;21166;-72
2020/12/07 02:28:18;;;;;;;18.30;7.67;;;;;;;-7.58;67.02;101122.05;1749484;80;21177;-72
2020/12/07 02:30:48;;;;;;;14.78;7.12;;;;;;;-7.60;66.96;101121.99;1710589;84;21135;-71
2020/12/07 02:33:16;;;;;;;18.30;8.18;;;;;;;-7.65;67.03;101117.15;1710507;84;21167;-71
2020/12/07 02:35:45;;;;;;;19.67;9.10;;;;;;;-7.70;67.09;101119.16;1727083;83;21320;-72
2020/12/07 02:38:13;;;;;;;15.50;7.62;;;;;;;-7.74;67.14;101120.38;1710475;84;21358;-72
2020/12/07 02:40:42;;;;;;;18.98;7.05;;;;;;;-7.76;67.15;101111.75;1708263;84;21177;-72
2020/12/07 02:43:12;;;;;;;18.25;7.62;;;;;;;-7.72;67.09;101127.22;1699140;84;21798;-72
2020/12/07 02:45:40;;;;;;;16.37;7.72;;;;;;;-7.77;67.21;101122.84;1667061;86;21696;-71
2020/12/07 02:48:09;;;;;;;18.48;7.70;;;;;;;-7.77;67.07;101122.84;1666932;86;21173;-70
2020/12/07 02:50:38;;;;;;;13.83;7.53;;;;;;;-7.80;67.06;101122.77;1718306;83;21195;-69
2020/12/07 02:53:07;;;;;;;15.45;7.53;;;;;;;-7.78;66.95;101118.53;1775909;80;21206;-69
2020/12/07 02:55:36;;;;;;;13.25;7.33;;;;;;;-7.79;66.78;101128.34;1704605;83;21805;-70
2020/12/07 02:58:04;;;;;;;14.33;6.65;;;;;;;-7.76;66.66;101127.59;1709803;84;21168;-70
2020/12/07 03:00:32;;;;;;;16.35;7.08;;;;;;;-7.81;66.74;101133.88;1671625;85;21164;-69
2020/12/07 03:02:59;;;;;;;17.07;8.28;;;;;;;-7.82;66.78;101131.27;1723804;83;21186;-70
2020/12/07 03:05:28;;;;;;;14.75;7.20;;;;;;;-7.84;66.60;101132.48;1707136;84;21180;-70
2020/12/07 03:07:58;;;;;;;17.20;7.47;;;;;;;-7.84;66.66;101151.75;1726089;83;21203;-70
2020/12/07 03:10:27;;;;;;;14.65;6.85;;;;;;;-7.87;66.46;101145.26;1707577;84;21619;-71
2020/12/07 03:12:55;;;;;;;17.10;7.42;;;;;;;-7.83;66.38;101147.08;1726634;83;21340;-71
2020/12/07 03:15:25;;;;;;;16.40;7.37;;;;;;;-7.86;66.22;101148.29;1707957;84;21195;-71
2020/12/07 03:17:53;;;;;;;15.85;7.55;;;;;;;-7.85;66.26;101150.43;1727450;83;21751;-71
2020/12/07 03:20:22;;;;;;;16.15;7.62;;;;;;;-7.85;66.31;101132.45;1707100;84;21172;-71
2020/12/07 03:22:52;;;;;;;15.63;7.42;;;;;;;-7.92;66.20;101132.70;1678519;83;21142;-71
2020/12/07 03:25:22;;;;;;;18.55;7.95;;;;;;;-7.89;66.00;101132.78;1656664;86;21191;-70
2020/12/07 03:27:51;;;;;;;16.35;7.78;;;;;;;-7.93;66.20;101123.26;1655909;86;21324;-70
2020/12/07 03:30:19;;;;;;;15.98;8.00;;;;;;;-7.92;66.12;101132.70;1652748;87;21219;-70
2020/12/07 03:32:46;;;;;;;15.10;7.22;;;;;;;-7.92;66.08;101118.58;1718662;83;21646;-71
2020/12/07 03:35:14;;;;;;;13.70;7.20;;;;;;;-7.92;66.10;101123.72;1718289;83;21341;-71
2020/12/07 03:37:41;;;;;;;16.17;7.90;;;;;;;-7.94;66.00;101109.95;1718466;83;21663;-71
2020/12/07 03:40:09;;;;;;;16.80;7.67;;;;;;;-7.94;66.18;101124.08;1718448;83;21174;-70
2020/12/07 03:42:38;;;;;;;16.17;7.30;;;;;;;-7.96;66.09;101118.05;1717408;83;21311;-71
2020/12/07 03:45:06;;;;;;;17.52;7.45;;;;;;;-7.91;65.83;101116.48;1718387;83;21187;-71
2020/12/07 03:47:34;;;;;;;13.43;6.80;;;;;;;-7.98;65.77;101119.30;1691807;83;21322;-71
2020/12/07 03:50:02;;;;;;;15.00;7.08;;;;;;;-7.87;65.64;101126.00;1718239;83;21312;-71
2020/12/07 03:52:30;;;;;;;13.85;6.75;;;;;;;-7.88;65.54;101116.55;1738946;82;21146;-70
2020/12/07 03:55:00;;;;;;;16.37;8.00;;;;;;;-7.91;65.56;101117.76;1747869;82;21181;-71
2020/12/07 03:57:27;;;;;;;10.55;6.28;;;;;;;-7.97;65.57;101122.72;1750142;82;21178;-71
2020/12/07 03:59:58;;;;;;;15.48;7.28;;;;;;;-7.89;65.44;101118.65;1751038;82;21150;-71
2020/12/07 04:02:27;;;;;;;16.62;7.25;;;;;;;-7.91;65.31;101125.46;1750994;81;21182;-71
2020/12/07 04:05:01;;;;;;;14.70;7.05;;;;;;;-7.90;65.39;101120.79;1764089;80;21151;-71
2020/12/07 04:07:24;;;;;;;17.42;7.97;;;;;;;-7.91;65.39;101125.03;1738295;80;21272;-71
2020/12/07 04:09:54;;;;;;;15.32;8.30;;;;;;;-7.97;65.23;101122.30;1736170;82;21646;-70
2020/12/07 04:12:25;;;;;;;12.85;6.50;;;;;;;-7.93;65.23;101125.43;1748578;80;21165;-71
2020/12/07 04:14:52;;;;;;;15.90;7.45;;;;;;;-7.89;65.11;101118.65;1779574;80;21612;-71
2020/12/07 04:17:23;;;;;;;13.70;7.12;;;;;;;-7.94;65.06;101121.51;1779585;80;21199;-71
2020/12/07 04:19:50;;;;;;;16.67;8.30;;;;;;;-7.90;65.12;101124.64;1710916;84;21199;-70
2020/12/07 04:22:18;;;;;;;15.23;6.87;;;;;;;-7.95;65.18;101117.23;1687346;84;21657;-69
2020/12/07 04:24:45;;;;;;;14.13;7.20;;;;;;;-7.90;65.18;101125.92;1662934;84;21639;-70
2020/12/07 04:27:12;;;;;;;13.20;6.97;;;;;;;-7.90;65.08;101120.79;1695180;84;21333;-70
2020/12/07 04:29:39;;;;;;;12.70;6.85;;;;;;;-7.92;65.24;101114.73;1682771;85;21179;-70
2020/12/07 04:32:07;;;;;;;14.05;7.22;;;;;;;-7.95;65.23;101109.53;1697412;84;21768;-70
2020/12/07 04:34:34;;;;;;;18.37;7.40;;;;;;;-7.99;65.27;101117.95;1683043;85;21615;-71
2020/12/07 04:37:01;;;;;;;16.50;7.17;;;;;;;-7.97;65.36;101121.02;1697271;84;21214;-70
2020/12/07 04:39:29;;;;;;;17.70;7.58;;;;;;;-7.98;65.21;101112.88;1682786;85;21203;-70
2020/12/07 04:41:58;;;;;;;15.10;7.58;;;;;;;-7.97;65.23;101109.45;1694159;84;21182;-70
2020/12/07 04:44:25;;;;;;;15.18;7.22;;;;;;;-7.99;65.22;101102.54;1649203;86;21203;-70
2020/12/07 04:49:42;;;;;;;11.63;6.90;;;;;;;-7.94;65.15;101103.53;1762295;79;23471;-69
2020/12/07 04:52:13;;;;;;;14.28;6.78;;;;;;;-8.05;65.21;101104.55;1723220;82;21194;-70
2020/12/07 04:54:43;;;;;;;15.38;7.33;;;;;;;-8.01;65.05;101094.80;1650909;87;21172;-70
2020/12/07 04:57:10;;;;;;;19.30;8.13;;;;;;;-8.02;65.24;101103.33;1650885;87;21205;-70
2020/12/07 04:59:39;;;;;;;15.03;6.75;;;;;;;-8.07;65.26;101099.38;1678203;85;21787;-71
2020/12/07 05:02:06;;;;;;;15.30;7.15;;;;;;;-8.09;65.31;101080.48;1751046;82;21312;-70
2020/12/07 05:04:34;;;;;;;23.07;7.87;;;;;;;-8.12;65.15;101079.12;1751189;82;21183;-71
2020/12/07 05:07:07;;;;;;;14.23;7.53;;;;;;;-8.05;65.20;101085.71;1702375;82;21191;-71
2020/12/07 05:09:37;;;;;;;17.32;7.85;;;;;;;-8.04;65.33;101078.05;1684603;84;21485;-71
2020/12/07 05:14:41;;;;;;;15.32;6.83;;;;;;;-8.07;65.34;101074.98;1779983;79;23604;-71
2020/12/07 05:17:09;;;;;;;13.45;7.10;;;;;;;-8.11;65.37;101079.55;1748514;81;21624;-70
2020/12/07 05:19:36;;;;;;;12.55;7.05;;;;;;;-8.11;65.47;101080.84;1753039;81;21151;-71
2020/12/07 05:22:09;;;;;;;12.20;7.25;;;;;;;-8.09;65.56;101089.46;1742856;80;21316;-71
2020/12/07 05:24:36;;;;;;;14.97;6.73;;;;;;;-8.11;65.57;101073.13;1756801;80;21137;-71
2020/12/07 05:27:03;;;;;;;13.55;6.83;;;;;;;-8.09;65.45;101075.77;1756144;82;21769;-71
2020/12/07 05:29:36;;;;;;;15.68;7.35;;;;;;;-8.11;65.55;101085.97;1755839;82;21186;-70
2020/12/07 05:32:00;;;;;;;15.60;7.05;;;;;;;-8.15;65.53;101102.13;1755217;82;21150;-70
2020/12/07 05:34:27;;;;;;;14.05;7.12;;;;;;;-8.11;65.39;101076.98;1750968;82;21138;-70
2020/12/07 05:36:56;;;;;;;19.12;7.85;;;;;;;-8.09;65.35;101081.77;1733535;81;21187;-70
2020/12/07 05:39:25;;;;;;;15.25;7.10;;;;;;;-8.10;65.44;101097.13;1722949;83;21151;-71
2020/12/07 05:41:54;;;;;;;18.67;8.20;;;;;;;-8.10;65.33;101092.85;1751197;81;21339;-71
2020/12/07 05:44:22;;;;;;;13.22;6.62;;;;;;;-8.10;65.35;101093.28;1703905;82;21187;-71
2020/12/07 05:46:55;;;;;;;15.30;7.25;;;;;;;-8.13;65.46;101102.16;1753314;80;21602;-70
2020/12/07 05:49:24;;;;;;;17.10;7.45;;;;;;;-8.13;65.51;101122.70;1733520;80;21202;-70
2020/12/07 05:51:59;;;;;;;11.50;6.97;;;;;;;-8.15;65.47;101120.09;1703955;83;21355;-70
2020/12/07 05:54:26;;;;;;;16.73;7.78;;;;;;;-8.15;65.41;101127.80;1698986;83;21143;-71
2020/12/07 05:56:53;;;;;;;16.12;7.15;;;;;;;-8.14;65.48;101124.41;1722007;83;21300;-71
2020/12/07 05:59:32;;;;;;;11.12;5.83;;;;;;;-8.13;65.40;101121.02;1731197;82;21799;-71
2020/12/07 06:01:59;;;;;;;16.37;7.40;;;;;;;-8.10;65.45;101122.38;1753160;82;21131;-71
2020/12/07 06:04:27;;;;;;;14.35;7.83;;;;;;;-8.10;65.42;101117.23;1740354;82;21316;-71
2020/12/07 06:06:59;;;;;;;16.10;8.03;;;;;;;-8.10;65.23;101114.67;1701383;83;21194;-71
2020/12/07 06:09:29;;;;;;;15.35;7.00;;;;;;;-8.05;65.14;101116.52;1713382;83;21201;-71
2020/12/07 06:12:04;;;;;;;16.00;7.25;;;;;;;-8.06;65.01;101119.48;1711214;83;21297;-71
2020/12/07 06:14:32;;;;;;;27.80;8.03;;;;;;;-8.02;65.11;101119.16;1700260;83;21186;-72
2020/12/07 06:16:59;;;;;;;16.97;7.55;;;;;;;-8.04;65.25;101118.23;1709438;82;21223;-73
2020/12/07 06:19:31;;;;;;;18.32;7.97;;;;;;;-7.96;65.10;101110.34;1684490;84;21150;-72
2020/12/07 06:22:01;;;;;;;23.18;6.97;;;;;;;-7.93;64.96;101107.84;1644959;86;21188;-72
2020/12/07 06:24:42;;;;;;;16.62;8.20;;;;;;;-7.94;65.08;101100.97;1745041;82;21204;-72
2020/12/07 06:27:15;;;;;;;19.15;7.95;;;;;;;-8.02;64.82;101097.34;1720157;82;21301;-72
2020/12/07 06:30:06;;;;;;;18.37;8.00;;;;;;;-7.96;64.93;101111.20;1694707;84;21159;-72
2020/12/07 06:32:51;;;;;;;17.37;8.40;;;;;;;-7.97;64.86;101108.60;1680084;85;21175;-72
2020/12/07 06:35:19;;;;;;;16.25;8.00;;;;;;;-7.92;64.82;101094.19;1665232;84;21167;-70
2020/12/07 06:37:49;;;;;;;15.68;7.70;;;;;;;-7.96;64.78;101097.51;1710023;84;21120;-71
2020/12/07 06:40:23;;;;;;;14.68;8.00;;;;;;;-7.91;64.66;101114.77;1709922;84;21306;-72
2020/12/07 06:42:52;;;;;;;17.65;7.17;;;;;;;-8.02;64.73;101102.47;1709948;84;21155;-71
2020/12/07 06:45:31;;;;;;;16.32;7.67;;;;;;;-7.93;64.84;101084.73;1693364;84;21179;-72
2020/12/07 06:48:12;;;;;;;15.15;8.15;;;;;;;-7.89;64.75;101086.55;1698881;83;21540;-72
2020/12/07 06:50:41;;;;;;;26.68;8.90;;;;;;;-7.89;64.71;101092.97;1682925;84;21183;-72
2020/12/07 06:55:58;;;;;;;17.80;7.67;;;;;;;-7.75;64.73;101088.20;1701544;84;21123;-72
2020/12/07 06:58:36;;;;;;;17.05;7.60;;;;;;;-7.77;64.51;101102.72;1683329;84;21577;-72
2020/12/07 07:01:14;;;;;;;18.48;7.53;;;;;;;-7.67;64.58;101094.82;1683828;84;21108;-72
2020/12/07 07:03:51;;;;;;;13.00;7.03;;;;;;;-7.63;64.38;101097.52;1706169;84;21165;-72
2020/12/07 07:06:22;;;;;;;15.23;7.35;;;;;;;-7.57;64.30;101090.37;1689341;84;21480;-71
2020/12/07 07:08:59;;;;;;;15.30;7.33;;;;;;;-7.53;64.66;101096.46;1659449;85;21158;-71
2020/12/07 07:11:29;;;;;;;16.93;7.10;;;;;;;-7.52;64.02;101111.91;1666980;85;21655;-72
2020/12/07 07:14:00;;;;;;;16.97;7.45;;;;;;;-7.43;63.94;101107.02;1658612;85;21206;-73
2020/12/07 07:16:28;;;;;;;18.35;7.08;;;;;;;-7.43;63.74;101100.60;1669819;84;21137;-72
2020/12/07 07:18:56;;;;;;;16.90;7.62;;;;;;;-7.33;63.79;101099.53;1607383;86;21182;-72
2020/12/07 07:21:23;;;;;;;14.15;7.22;;;;;;;-7.33;63.37;101099.53;1623095;84;21185;-72
2020/12/07 07:23:52;;;;;;;14.75;7.50;;;;;;;-7.35;63.70;101111.47;1683297;84;21294;-72
2020/12/07 07:26:23;;;;;;;15.88;7.62;;;;;;;-7.29;63.37;101100.05;1669540;84;21325;-72
2020/12/07 07:28:51;;;;;;;15.03;7.03;;;;;;;-7.28;63.44;101088.95;1670421;83;21171;-72
2020/12/07 07:31:20;;;;;;;17.92;8.05;;;;;;;-7.18;63.34;101083.63;1740568;82;21183;-72
2020/12/07 07:33:49;;;;;;;22.90;9.13;;;;;;;-7.18;63.41;101085.77;1642193;86;21319;-71
2020/12/07 07:36:26;;;;;;;14.65;7.20;;;;;;;-7.11;63.66;101085.08;1590848;87;21214;-72
2020/12/07 07:38:57;;;;;;;17.92;8.20;;;;;;;-7.01;62.92;101087.86;1640067;86;21165;-73
2020/12/07 07:41:25;;;;;;;15.50;7.37;;;;;;;-6.99;62.80;101100.35;1668056;86;21214;-72
2020/12/07 07:43:55;;;;;;;15.65;8.30;;;;;;;-6.93;63.17;101098.78;1676636;84;21970;-72
2020/12/07 07:46:23;;;;;;;18.52;8.03;;;;;;;-6.85;62.94;101104.50;1740393;82;21158;-73
2020/12/07 08:11:46;;;;;;;12.73;7.30;;;;;;;-6.53;61.15;101081.17;1728760;81;21158;-71
2020/12/07 08:16:21;;;;;;;13.75;7.45;;;;;;;-6.52;61.01;101082.52;1723294;81;21219;-72
2020/12/07 08:18:54;;;;;;;15.75;7.80;;;;;;;-6.46;60.98;101081.36;1745314;81;21139;-72
2020/12/07 08:21:28;;;;;;;18.32;7.87;;;;;;;-6.44;60.85;101070.66;1742527;80;21299;-71
2020/12/07 08:23:58;;;;;;;16.93;7.50;;;;;;;-6.39;61.21;101071.16;1745664;80;21147;-71
2020/12/07 08:26:25;;;;;;;18.30;8.65;;;;;;;-6.35;60.78;101069.12;1748140;80;21710;-71
2020/12/07 08:28:53;;;;;;;16.70;7.35;;;;;;;-6.30;60.71;101069.66;1757621;81;21308;-70
2020/12/07 08:31:22;;;;;;;19.48;7.30;;;;;;;-6.22;60.64;101069.80;1745404;80;21167;-71
2020/12/07 08:34:06;;;;;;;22.22;8.20;;;;;;;-6.21;60.15;101071.55;1763924;80;21193;-72
2020/12/07 08:36:34;;;;;;;17.10;8.33;;;;;;;-6.15;60.62;101066.92;1717694;81;21309;-72
2020/12/07 08:39:01;;;;;;;16.30;8.68;;;;;;;-6.06;60.50;101086.84;1720600;82;21542;-72
2020/12/07 08:41:33;;;;;;;14.78;7.53;;;;;;;-6.09;59.78;101081.20;1750335;81;21603;-72
2020/12/07 08:44:06;;;;;;;20.23;9.10;;;;;;;-6.02;60.06;101060.29;1769148;80;21602;-72
2020/12/07 08:46:36;;;;;;;20.17;8.05;;;;;;;-5.95;59.79;101069.84;1760498;81;21144;-72
2020/12/07 08:49:05;;;;;;;15.32;7.65;;;;;;;-5.93;59.65;101056.59;1758040;79;21732;-72
2020/12/07 08:51:36;;;;;;;18.12;8.03;;;;;;;-5.93;59.60;101057.44;1764037;80;21170;-72
2020/12/07 08:54:04;;;;;;;17.73;7.75;;;;;;;-5.87;59.83;101061.86;1705387;83;21612;-72
2020/12/07 08:56:32;;;;;;;14.33;7.90;;;;;;;-5.85;59.30;101058.87;1691049;84;21568;-71
2020/12/07 08:58:59;;;;;;;17.62;6.67;;;;;;;-5.80;59.46;101058.53;1679501;84;21314;-72
2020/12/07 09:01:26;;;;;;;15.72;8.48;;;;;;;-5.69;59.66;101057.84;1695153;83;21733;-73
2020/12/07 09:03:53;;;;;;;18.37;8.55;;;;;;;-5.65;59.13;101068.64;1771883;81;21175;-73
2020/12/07 09:06:25;;;;;;;16.07;7.70;;;;;;;-5.64;58.88;101058.79;1708502;83;21170;-73
2020/12/07 09:08:53;;;;;;;11.75;6.70;;;;;;;-5.56;59.13;101058.52;1782810;80;21188;-72
2020/12/07 09:11:20;;;;;;;14.23;8.18;;;;;;;-5.50;58.80;101054.76;1741435;80;21310;-72
2020/12/07 09:13:48;;;;;;;12.50;6.42;;;;;;;-5.47;58.39;101059.09;1690029;83;21545;-71
2020/12/07 09:16:15;;;;;;;16.95;7.92;;;;;;;-5.39;58.53;101041.17;1742369;81;21172;-72
2020/12/07 09:18:42;;;;;;;14.13;7.28;;;;;;;-5.37;58.33;101049.78;1741695;80;21717;-72
2020/12/07 09:21:09;;;;;;;19.25;7.67;;;;;;;-5.37;58.48;101051.95;1741883;81;21175;-72
2020/12/07 09:23:38;;;;;;;17.77;8.60;;;;;;;-5.30;58.09;101040.02;1744971;80;21806;-72
2020/12/07 09:26:05;;;;;;;13.43;7.05;;;;;;;-5.32;57.71;101036.13;1708685;82;21320;-73
2020/12/07 09:31:16;;;;;;;15.32;8.08;;;;;;;-5.20;58.36;101026.84;1772061;79;23418;-72
2020/12/07 09:33:43;;;;;;;14.53;7.00;;;;;;;-5.21;57.84;101032.84;1762583;80;21572;-71
2020/12/07 09:36:13;;;;;;;16.60;7.97;;;;;;;-5.24;58.07;101022.47;1683908;84;21208;-72
2020/12/07 09:38:40;;;;;;;14.98;7.80;;;;;;;-5.26;57.47;101013.42;1686984;84;21574;-72
2020/12/07 09:41:07;;;;;;;23.85;7.53;;;;;;;-5.14;58.22;101020.06;1722852;82;21202;-72
2020/12/07 09:43:37;;;;;;;20.20;7.40;;;;;;;-5.03;58.22;101018.91;1707188;82;21206;-72
2020/12/07 09:46:05;;;;;;;19.45;7.83;;;;;;;-4.94;58.16;101010.43;1710107;82;21276;-72
2020/12/07 09:48:34;;;;;;;16.25;8.33;;;;;;;-4.83;58.42;101002.84;1686910;82;21207;-72
2020/12/07 09:51:01;;;;;;;20.02;8.33;;;;;;;-4.68;57.82;101004.33;1683239;83;21204;-72
2020/12/07 09:53:28;;;;;;;15.00;7.40;;;;;;;-4.67;57.04;101010.34;1669987;85;21211;-72
2020/12/07 09:55:57;;;;;;;18.20;8.90;;;;;;;-4.55;56.95;101004.05;1665636;84;21362;-71
2020/12/07 09:58:25;;;;;;;18.45;8.30;;;;;;;-4.56;56.64;100996.30;1694108;84;21283;-73
2020/12/07 10:00:53;;;;;;;20.15;8.35;;;;;;;-4.52;56.85;100997.62;1676762;85;21187;-72
2020/12/07 10:03:22;;;;;;;18.05;8.50;;;;;;;-4.50;56.46;100993.35;1668972;84;21183;-71
2020/12/07 10:05:50;;;;;;;24.63;9.23;;;;;;;-4.51;56.42;100992.05;1722684;79;21672;-72
2020/12/07 10:08:18;;;;;;;21.07;8.70;;;;;;;-4.47;56.64;100986.91;1715929;82;21351;-72
2020/12/07 10:10:47;;;;;;;16.85;7.67;;;;;;;-4.49;56.40;100994.20;1761078;80;21166;-73
2020/12/07 10:13:16;;;;;;;17.92;7.87;;;;;;;-4.52;56.76;100982.13;1717178;82;21306;-73
2020/12/07 10:15:43;;;;;;;17.25;8.33;;;;;;;-4.56;56.15;100982.09;1732888;82;21152;-73
2020/12/07 10:18:11;;;;;;;15.32;7.67;;;;;;;-4.55;56.55;100985.98;1725473;81;21319;-73
2020/12/07 10:20:39;;;;;;;19.80;8.30;;;;;;;-4.55;56.60;100974.36;1720449;82;21189;-72
2020/12/07 10:23:06;;;;;;;21.25;9.08;;;;;;;-4.56;56.35;100966.16;1735047;81;21162;-72
2020/12/07 10:25:35;;;;;;;19.73;8.18;;;;;;;-4.58;56.42;100981.20;1714104;81;21186;-73
2020/12/07 10:28:03;;;;;;;19.70;9.20;;;;;;;-4.57;56.23;100978.63;1719659;83;21203;-72
2020/12/07 10:30:30;;;;;;;18.48;8.38;;;;;;;-4.58;56.41;100973.02;1721576;81;21643;-72
2020/12/07 10:32:58;;;;;;;15.72;7.35;;;;;;;-4.64;56.89;100993.63;1725448;81;21327;-73
2020/12/07 10:35:27;;;;;;;19.40;8.38;;;;;;;-4.56;56.86;100977.78;1722465;83;21208;-72
2020/12/07 10:37:56;;;;;;;17.17;7.28;;;;;;;-4.62;56.36;100968.27;1715780;81;21162;-72
2020/12/07 10:40:23;;;;;;;17.37;8.18;;;;;;;-4.58;56.49;100970.43;1720276;81;21189;-72
2020/12/07 10:42:51;;;;;;;19.85;7.97;;;;;;;-4.63;56.57;100958.78;1713652;81;21206;-73
2020/12/07 10:45:21;;;;;;;19.10;7.70;;;;;;;-4.55;56.48;100960.16;1720837;83;21543;-72
2020/12/07 10:47:50;;;;;;;17.35;7.95;;;;;;;-4.52;56.54;100950.29;1724527;81;21369;-72
2020/12/07 10:50:30;;;;;;;14.45;7.42;;;;;;;-4.55;56.49;100942.09;1733284;83;21178;-72
2020/12/07 10:52:57;;;;;;;20.80;7.78;;;;;;;-4.48;56.66;100945.16;1710930;83;21184;-72
2020/12/07 11:25:35;;;;;;;14.38;7.42;;;;;;;-4.29;56.64;100910.48;1682406;83;21161;-72
2020/12/07 11:28:03;;;;;;;13.45;6.70;;;;;;;-4.22;56.44;100908.81;1709867;83;21219;-72
2020/12/07 11:30:30;;;;;;;21.02;7.87;;;;;;;-4.24;55.39;100909.25;1681457;84;21177;-71
2020/12/07 11:32:58;;;;;;;17.85;7.10;;;;;;;-4.26;55.09;100905.77;1761298;81;21191;-71
2020/12/07 11:35:26;;;;;;;19.95;7.28;;;;;;;-4.23;55.51;100887.30;1739492;81;21166;-71
2020/12/07 11:38:01;;;;;;;16.87;7.53;;;;;;;-4.15;55.49;100897.25;1742396;81;22177;-72
2020/12/07 11:40:36;;;;;;;13.93;6.60;;;;;;;-4.12;55.15;100889.55;1735312;81;21678;-73
2020/12/07 11:43:07;;;;;;;16.02;7.70;;;;;;;-4.09;55.33;100895.58;1727539;82;21276;-73
2020/12/07 11:45:22;;;;;;;15.40;7.25;;;;;;;-4.07;55.40;100891.30;1720018;82;21733;-72
2020/12/07 11:47:51;;;;;;;17.17;7.92;;;;;;;-4.13;55.49;100898.14;1729935;81;21173;-72
2020/12/07 11:50:24;;;;;;;14.60;7.35;;;;;;;-4.06;55.94;100900.78;1723275;83;21666;-73
2020/12/07 11:52:51;;;;;;;15.28;7.80;;;;;;;-4.03;56.07;100905.56;1704198;83;21174;-74
2020/12/07 11:55:18;;;;;;;19.45;7.97;;;;;;;-4.05;55.95;100894.73;1721512;82;21199;-72
2020/12/07 11:57:45;;;;;;;18.00;7.53;;;;;;;-4.04;56.16;100895.19;1729913;82;21856;-73
2020/12/07 12:00:13;;;;;;;16.40;7.17;;;;;;;-4.05;55.79;100894.73;1705685;83;21134;-74
2020/12/07 12:02:40;;;;;;;18.20;7.40;;;;;;;-4.07;55.73;100900.34;1707528;83;21143;-73
2020/12/07 12:05:07;;;;;;;20.05;8.55;;;;;;;-4.06;55.74;100905.95;1724306;82;21553;-73
2020/12/07 12:07:35;;;;;;;16.67;7.67;;;;;;;-4.16;55.55;100903.27;1735391;83;21219;-74
2020/12/07 12:10:03;;;;;;;14.00;6.83;;;;;;;-4.18;55.71;100895.95;1750482;82;21198;-73
2020/12/07 12:12:36;;;;;;;14.47;6.80;;;;;;;-4.16;55.87;100887.77;1649770;81;21259;-73
2020/12/07 12:15:04;;;;;;;15.23;7.12;;;;;;;-4.16;55.55;100884.33;1740609;81;21619;-74
2020/12/07 12:17:31;;;;;;;14.28;6.90;;;;;;;-4.20;55.89;100888.60;1715512;82;21275;-73
2020/12/07 12:19:58;;;;;;;14.35;7.15;;;;;;;-4.16;56.05;100885.19;1726653;81;21170;-74
2020/12/07 12:22:25;;;;;;;15.75;7.35;;;;;;;-4.17;56.10;100883.89;1760675;81;21156;-73
2020/12/07 12:24:52;;;;;;;16.42;6.75;;;;;;;-4.20;56.31;100883.88;1760463;81;21160;-72
2020/12/07 12:27:20;;;;;;;13.78;7.03;;;;;;;-4.17;56.51;100889.05;1731730;81;21136;-73
2020/12/07 12:29:49;;;;;;;11.78;6.03;;;;;;;-4.20;56.52;100880.85;1744462;81;21187;-73
2020/12/07 12:32:17;;;;;;;15.58;7.83;;;;;;;-4.24;56.20;100900.20;1690453;85;21522;-73